createdAt,value
2023-05-04T00:01:51.750Z,11.26
2023-05-04T00:03:56.910Z,11.23
2023-05-04T00:06:00.644Z,11.25
2023-05-04T00:08:04.189Z,11.22
2023-05-04T00:10:08.977Z,11.21
2023-05-04T00:12:12.663Z,11.20
2023-05-04T00:14:16.502Z,11.16
2023-05-04T00:16:20.254Z,11.13
2023-05-04T00:18:23.926Z,11.12
2023-05-04T00:20:29.218Z,11.08
2023-05-04T00:22:32.831Z,11.05
2023-05-04T00:24:36.545Z,11.05
2023-05-04T00:26:40.081Z,11.05
2023-05-04T00:28:43.395Z,11.06
2023-05-04T00:30:46.858Z,11.04
2023-05-04T00:32:50.283Z,11.01
2023-05-04T00:34:53.619Z,11.02
2023-05-04T00:36:58.785Z,10.98
2023-05-04T00:39:02.105Z,10.96
2023-05-04T00:41:05.458Z,10.98
2023-05-04T00:43:08.781Z,10.98
2023-05-04T00:45:12.590Z,10.99
2023-05-04T00:47:17.087Z,11.00
2023-05-04T00:49:21.743Z,10.99
2023-05-04T00:51:27.065Z,10.99
2023-05-04T00:53:32.144Z,10.99
2023-05-04T00:55:37.683Z,11.01
2023-05-04T00:57:41.733Z,11.04
2023-05-04T00:59:45.050Z,11.06
2023-05-04T01:01:48.387Z,11.06
2023-05-04T01:03:52.518Z,11.04
2023-05-04T01:06:06.406Z,11.04
2023-05-04T01:08:14.884Z,10.97
2023-05-04T01:10:26.876Z,10.91
2023-05-04T01:12:37.165Z,10.88
2023-05-04T01:14:42.077Z,10.82
2023-05-04T01:16:45.290Z,10.78
2023-05-04T01:18:48.688Z,10.76
2023-05-04T01:20:52.006Z,10.75
2023-05-04T01:22:57.241Z,10.74
2023-05-04T01:25:00.756Z,10.71
2023-05-04T01:27:07.144Z,10.65
2023-05-04T01:29:17.321Z,10.62
2023-05-04T01:31:24.244Z,10.62
2023-05-04T01:33:28.614Z,10.63
2023-05-04T01:35:32.055Z,10.57
2023-05-04T01:37:35.746Z,10.53
2023-05-04T01:39:40.521Z,10.53
2023-05-04T01:41:43.873Z,10.53
2023-05-04T01:43:47.304Z,10.53
2023-05-04T01:45:50.942Z,10.52
2023-05-04T01:47:54.289Z,10.48
2023-05-04T01:49:57.751Z,10.41
2023-05-04T01:52:01.109Z,10.35
2023-05-04T01:54:04.524Z,10.32
2023-05-04T01:56:10.780Z,10.28
2023-05-04T01:58:14.208Z,10.22
2023-05-04T02:00:17.951Z,10.20
2023-05-04T02:02:21.392Z,10.21
2023-05-04T02:04:24.793Z,10.14
2023-05-04T02:06:28.148Z,10.10
2023-05-04T02:08:31.458Z,10.08
2023-05-04T02:10:35.062Z,10.08
2023-05-04T02:12:39.798Z,10.05
2023-05-04T02:14:43.278Z,10.06
2023-05-04T02:16:46.617Z,10.02
2023-05-04T02:18:50.000Z,9.97
2023-05-04T02:20:53.332Z,9.94
2023-05-04T02:22:56.782Z,9.92
2023-05-04T02:25:01.579Z,9.89
2023-05-04T02:27:04.965Z,9.89
2023-05-04T02:29:09.669Z,9.87
2023-05-04T02:31:13.017Z,9.84
2023-05-04T02:33:16.344Z,9.80
2023-05-04T02:35:19.808Z,9.74
2023-05-04T02:37:23.220Z,9.68
2023-05-04T02:39:26.645Z,9.65
2023-05-04T02:41:31.053Z,9.64
2023-05-04T02:43:34.400Z,9.66
2023-05-04T02:45:39.110Z,9.72
2023-05-04T02:47:42.573Z,9.76
2023-05-04T02:49:46.456Z,9.80
2023-05-04T02:51:49.740Z,9.82
2023-05-04T02:53:53.157Z,9.77
2023-05-04T02:55:56.530Z,9.75
2023-05-04T02:57:59.802Z,9.74
2023-05-04T03:00:05.048Z,9.72
2023-05-04T03:02:10.091Z,9.71
2023-05-04T03:04:13.733Z,9.67
2023-05-04T03:06:17.181Z,9.67
2023-05-04T03:08:20.469Z,9.68
2023-05-04T03:10:23.790Z,9.69
2023-05-04T03:12:27.203Z,9.67
2023-05-04T03:14:31.527Z,9.64
2023-05-04T03:16:35.007Z,9.57
2023-05-04T03:18:40.556Z,9.55
2023-05-04T03:20:43.887Z,9.53
2023-05-04T03:22:52.947Z,9.51
2023-05-04T03:24:56.975Z,9.45
2023-05-04T03:27:01.889Z,9.42
2023-05-04T03:29:05.612Z,9.40
2023-05-04T03:31:08.963Z,9.37
2023-05-04T03:33:12.433Z,9.34
2023-05-04T03:35:24.003Z,9.30
2023-05-04T03:37:28.682Z,9.29
2023-05-04T03:39:32.090Z,9.28
2023-05-04T03:41:35.619Z,9.30
2023-05-04T03:43:38.982Z,9.30
2023-05-04T03:45:42.332Z,9.29
2023-05-04T03:47:45.844Z,9.27
2023-05-04T03:49:49.231Z,9.28
2023-05-04T03:51:54.034Z,9.29
2023-05-04T03:53:59.189Z,9.31
2023-05-04T03:56:02.911Z,9.30
2023-05-04T03:58:07.223Z,9.32
2023-05-04T04:00:11.989Z,9.33
2023-05-04T04:02:34.919Z,9.36
2023-05-04T04:04:38.275Z,9.35
2023-05-04T04:06:43.447Z,9.37
2023-05-04T04:08:48.390Z,9.39
2023-05-04T04:10:51.747Z,9.43
2023-05-04T04:12:55.128Z,9.45
2023-05-04T04:14:58.686Z,9.46
2023-05-04T04:17:02.018Z,9.41
2023-05-04T04:19:06.849Z,9.38
2023-05-04T04:21:10.796Z,9.38
2023-05-04T04:23:14.140Z,9.35
2023-05-04T04:25:19.024Z,9.31
2023-05-04T04:27:22.393Z,9.31
2023-05-04T04:29:25.713Z,9.30
2023-05-04T04:31:29.186Z,9.29
2023-05-04T04:33:33.216Z,9.27
2023-05-04T04:35:37.204Z,9.26
2023-05-04T04:37:40.563Z,9.25
2023-05-04T04:39:44.281Z,9.21
2023-05-04T04:41:49.474Z,9.18
2023-05-04T04:43:52.957Z,9.17
2023-05-04T04:45:57.217Z,9.15
2023-05-04T04:48:01.337Z,9.15
2023-05-04T04:50:05.570Z,9.17
2023-05-04T04:52:09.708Z,9.17
2023-05-04T04:54:13.936Z,9.14
2023-05-04T04:56:18.620Z,9.14
2023-05-04T04:58:23.949Z,9.14
2023-05-04T05:00:27.794Z,9.16
2023-05-04T05:02:31.456Z,9.17
2023-05-04T05:04:35.060Z,9.17
2023-05-04T05:06:38.708Z,9.20
2023-05-04T05:08:42.730Z,9.19
2023-05-04T05:10:46.789Z,9.20
2023-05-04T05:12:51.376Z,9.22
2023-05-04T05:14:56.433Z,9.25
2023-05-04T05:16:59.867Z,9.27
2023-05-04T05:19:03.620Z,9.30
2023-05-04T05:21:07.813Z,9.37
2023-05-04T05:23:11.686Z,9.41
2023-05-04T05:25:15.323Z,9.47
2023-05-04T05:27:18.930Z,9.48
2023-05-04T05:29:22.815Z,9.49
2023-05-04T05:31:28.482Z,9.51
2023-05-04T05:33:32.276Z,9.55
2023-05-04T05:35:35.977Z,9.58
2023-05-04T05:37:39.640Z,9.59
2023-05-04T05:39:43.244Z,9.61
2023-05-04T05:41:47.000Z,9.64
2023-05-04T05:43:50.589Z,9.66
2023-05-04T05:45:54.937Z,9.67
2023-05-04T05:47:59.935Z,9.66
2023-05-04T05:50:03.776Z,9.67
2023-05-04T05:52:07.632Z,9.73
2023-05-04T05:54:11.413Z,9.72
2023-05-04T05:56:15.236Z,9.72
2023-05-04T05:58:18.836Z,9.70
2023-05-04T06:00:22.904Z,9.69
2023-05-04T06:02:26.627Z,9.65
2023-05-04T06:04:31.735Z,9.68
2023-05-04T06:06:35.632Z,9.71
2023-05-04T06:08:39.193Z,9.74
2023-05-04T06:10:43.168Z,9.75
2023-05-04T06:12:47.097Z,9.76
2023-05-04T06:14:50.641Z,9.74
2023-05-04T06:16:54.345Z,9.72
2023-05-04T06:18:57.884Z,9.71
2023-05-04T06:21:02.928Z,9.74
2023-05-04T06:23:06.586Z,9.77
2023-05-04T06:25:10.613Z,9.79
2023-05-04T06:27:14.259Z,9.81
2023-05-04T06:29:17.874Z,9.82
2023-05-04T06:31:21.441Z,9.86
2023-05-04T06:33:25.152Z,9.90
2023-05-04T06:35:29.986Z,9.96
2023-05-04T06:37:35.105Z,10.02
2023-05-04T06:39:38.771Z,10.04
2023-05-04T06:41:42.542Z,10.08
2023-05-04T06:43:46.399Z,10.03
2023-05-04T06:45:50.063Z,10.02
2023-05-04T06:47:53.994Z,10.04
2023-05-04T06:49:58.020Z,10.10
2023-05-04T06:52:01.600Z,10.13
2023-05-04T06:54:06.950Z,10.14
2023-05-04T06:56:10.694Z,10.11
2023-05-04T06:58:14.458Z,10.12
2023-05-04T07:00:18.780Z,10.10
2023-05-04T07:02:22.649Z,10.10
2023-05-04T07:04:26.470Z,10.10
2023-05-04T07:06:31.008Z,10.11
2023-05-04T07:08:34.986Z,10.10
2023-05-04T07:10:40.226Z,10.10
2023-05-04T07:12:43.931Z,10.15
2023-05-04T07:14:47.524Z,10.19
2023-05-04T07:16:51.255Z,10.25
2023-05-04T07:18:54.996Z,10.26
2023-05-04T07:21:10.768Z,10.31
2023-05-04T07:23:22.059Z,10.35
2023-05-04T07:25:25.829Z,10.39
2023-05-04T07:27:31.070Z,10.40
2023-05-04T07:29:34.762Z,10.37
2023-05-04T07:31:38.656Z,10.37
2023-05-04T07:33:42.475Z,10.36
2023-05-04T07:35:46.050Z,10.39
2023-05-04T07:37:49.908Z,10.48
2023-05-04T07:39:53.401Z,10.65
2023-05-04T07:41:57.014Z,10.71
2023-05-04T07:44:05.834Z,10.66
2023-05-04T07:46:09.614Z,10.68
2023-05-04T07:48:13.215Z,10.68
2023-05-04T07:50:16.915Z,10.69
2023-05-04T07:52:20.649Z,10.69
2023-05-04T07:54:24.239Z,10.71
2023-05-04T07:56:27.852Z,10.72
2023-05-04T07:58:31.467Z,10.70
2023-05-04T08:00:36.437Z,10.69
2023-05-04T08:02:40.046Z,10.70
2023-05-04T08:04:43.750Z,10.65
2023-05-04T08:06:47.378Z,10.62
2023-05-04T08:08:52.760Z,10.60
2023-05-04T08:11:08.052Z,10.54
2023-05-04T08:13:20.093Z,10.50
2023-05-04T08:15:23.696Z,10.52
2023-05-04T08:17:30.021Z,10.50
2023-05-04T08:19:33.862Z,10.49
2023-05-04T08:21:37.341Z,10.52
2023-05-04T08:23:41.091Z,10.60
2023-05-04T08:25:44.683Z,10.61
2023-05-04T08:27:48.330Z,10.55
2023-05-04T08:29:52.316Z,10.56
2023-05-04T08:31:58.090Z,10.58
2023-05-04T08:34:03.708Z,10.62
2023-05-04T08:36:09.552Z,10.55
2023-05-04T08:38:13.525Z,10.46
2023-05-04T08:40:17.762Z,10.41
2023-05-04T08:42:29.450Z,10.41
2023-05-04T08:44:33.029Z,10.54
2023-05-04T08:46:37.329Z,10.54
2023-05-04T08:48:43.084Z,10.59
2023-05-04T08:50:48.836Z,10.61
2023-05-04T08:52:53.700Z,10.70
2023-05-04T08:54:59.097Z,10.76
2023-05-04T08:57:04.026Z,10.91
2023-05-04T08:59:09.237Z,10.98
2023-05-04T09:01:13.911Z,10.99
2023-05-04T09:03:18.019Z,10.91
2023-05-04T09:05:22.341Z,10.89
2023-05-04T09:07:27.380Z,10.86
2023-05-04T09:09:31.919Z,10.81
2023-05-04T09:11:35.462Z,10.83
2023-05-04T09:13:38.987Z,10.87
2023-05-04T09:15:42.777Z,10.77
2023-05-04T09:17:58.006Z,10.61
2023-05-04T09:20:03.298Z,10.49
2023-05-04T09:22:17.413Z,10.46
2023-05-04T09:24:28.996Z,10.45
2023-05-04T09:26:33.541Z,10.56
2023-05-04T09:28:39.369Z,10.74
2023-05-04T09:30:43.618Z,10.74
2023-05-04T09:32:47.680Z,10.79
2023-05-04T09:34:52.355Z,10.95
2023-05-04T09:37:02.418Z,11.08
2023-05-04T09:39:12.838Z,11.20
2023-05-04T09:41:17.872Z,11.17
2023-05-04T09:43:21.426Z,11.21
2023-05-04T09:45:25.234Z,11.12
2023-05-04T09:47:38.674Z,10.96
2023-05-04T09:49:42.254Z,10.88
2023-05-04T09:51:47.456Z,10.83
2023-05-04T09:53:51.959Z,10.83
2023-05-04T09:56:11.373Z,10.81
2023-05-04T09:58:18.745Z,10.87
2023-05-04T10:00:22.436Z,10.83
2023-05-04T10:02:26.256Z,10.84
2023-05-04T10:04:30.287Z,10.93
2023-05-04T10:06:34.427Z,11.10
2023-05-04T10:08:38.480Z,11.12
2023-05-04T10:10:43.408Z,11.24
2023-05-04T10:12:46.872Z,11.20
2023-05-04T10:14:51.969Z,11.10
2023-05-04T10:17:04.917Z,11.06
2023-05-04T10:19:43.135Z,10.90
2023-05-04T10:22:01.372Z,10.90
2023-05-04T10:24:26.884Z,10.89
2023-05-04T10:26:48.500Z,10.75
2023-05-04T10:29:05.175Z,10.64
2023-05-04T10:31:10.573Z,10.60
2023-05-04T10:33:14.213Z,10.68
2023-05-04T10:35:19.992Z,10.66
2023-05-04T10:37:23.525Z,10.63
2023-05-04T10:39:28.238Z,10.61
2023-05-04T10:41:31.838Z,10.65
2023-05-04T10:43:35.361Z,10.56
2023-05-04T10:45:39.898Z,10.57
2023-05-04T10:47:44.883Z,10.62
2023-05-04T10:49:48.278Z,10.61
2023-05-04T10:51:52.460Z,10.58
2023-05-04T10:53:56.082Z,10.57
2023-05-04T10:55:59.928Z,10.55
2023-05-04T10:58:03.797Z,10.59
2023-05-04T11:00:09.762Z,10.70
2023-05-04T11:02:24.432Z,10.82
2023-05-04T11:04:30.056Z,10.75
2023-05-04T11:06:34.294Z,10.85
2023-05-04T11:08:38.081Z,10.84
2023-05-04T11:10:42.368Z,10.76
2023-05-04T11:12:46.025Z,10.73
2023-05-04T11:14:49.669Z,10.70
2023-05-04T11:16:53.384Z,10.66
2023-05-04T11:19:09.760Z,10.66
2023-05-04T11:21:14.782Z,10.66
2023-05-04T11:23:18.066Z,10.58
2023-05-04T11:25:29.041Z,10.48
2023-05-04T11:27:32.956Z,10.44
2023-05-04T11:29:36.540Z,10.37
2023-05-04T11:31:40.788Z,10.39
2023-05-04T11:33:48.392Z,10.38
2023-05-04T11:36:00.257Z,10.36
2023-05-04T11:38:06.934Z,10.27
2023-05-04T11:40:14.917Z,10.22
2023-05-04T11:42:19.306Z,10.24
2023-05-04T11:44:24.580Z,10.26
2023-05-04T11:46:28.199Z,10.27
2023-05-04T11:48:32.622Z,10.35
2023-05-04T11:50:37.063Z,10.38
2023-05-04T11:52:41.816Z,10.46
2023-05-04T11:54:57.048Z,10.55
2023-05-04T11:57:03.001Z,10.55
2023-05-04T11:59:10.835Z,10.66
2023-05-04T12:01:14.433Z,10.65
2023-05-04T12:03:19.744Z,10.73
2023-05-04T12:05:23.507Z,10.82
2023-05-04T12:07:27.401Z,10.92
2023-05-04T12:09:31.326Z,10.87
2023-05-04T12:11:38.564Z,10.80
2023-05-04T12:13:42.962Z,10.81
2023-05-04T12:15:46.732Z,10.86
2023-05-04T12:17:50.635Z,10.83
2023-05-04T12:19:55.529Z,10.92
2023-05-04T12:21:59.920Z,10.89
2023-05-04T12:24:04.646Z,10.92
2023-05-04T12:26:08.524Z,10.90
2023-05-04T12:28:13.643Z,10.96
2023-05-04T12:30:17.857Z,11.00
2023-05-04T12:32:21.729Z,11.07
2023-05-04T12:34:25.222Z,11.05
2023-05-04T12:36:28.823Z,11.01
2023-05-04T12:38:32.400Z,10.99
2023-05-04T12:40:36.664Z,10.99
2023-05-04T12:42:42.459Z,11.01
2023-05-04T12:44:47.590Z,11.00
2023-05-04T12:46:51.644Z,10.99
2023-05-04T12:48:55.288Z,10.99
2023-05-04T12:51:00.019Z,11.09
2023-05-04T12:53:04.590Z,11.11
2023-05-04T12:55:09.408Z,11.11
2023-05-04T12:57:13.644Z,11.11
2023-05-04T12:59:17.383Z,11.18
2023-05-04T13:01:22.381Z,11.24
2023-05-04T13:03:26.078Z,11.32
2023-05-04T13:05:35.311Z,11.30
2023-05-04T13:07:39.111Z,11.30
2023-05-04T13:09:43.599Z,11.34
2023-05-04T13:11:47.722Z,11.42
2023-05-04T13:13:51.304Z,11.44
2023-05-04T13:15:55.027Z,11.46
2023-05-04T13:18:00.500Z,11.39
2023-05-04T13:20:06.241Z,11.25
2023-05-04T13:22:10.175Z,11.16
2023-05-04T13:24:13.765Z,11.18
2023-05-04T13:26:17.316Z,11.25
2023-05-04T13:28:21.038Z,11.35
2023-05-04T13:30:24.800Z,11.33
2023-05-04T13:32:28.929Z,11.30
2023-05-04T13:34:34.498Z,11.32
2023-05-04T13:36:38.249Z,11.38
2023-05-04T13:38:41.923Z,11.48
2023-05-04T13:40:45.702Z,11.52
2023-05-04T13:42:49.472Z,11.55
2023-05-04T13:44:53.191Z,11.50
2023-05-04T13:46:56.945Z,11.55
2023-05-04T13:49:00.658Z,11.50
2023-05-04T13:51:06.004Z,11.45
2023-05-04T13:53:11.277Z,11.47
2023-05-04T13:55:16.901Z,11.51
2023-05-04T13:57:20.794Z,11.56
2023-05-04T13:59:24.587Z,11.63
2023-05-04T14:01:28.531Z,11.63
2023-05-04T14:03:33.112Z,11.64
2023-05-04T14:05:37.404Z,11.65
2023-05-04T14:07:42.676Z,11.69
2023-05-04T14:09:46.457Z,11.74
2023-05-04T14:11:50.399Z,11.78
2023-05-04T14:13:55.721Z,11.80
2023-05-04T14:15:59.708Z,11.89
2023-05-04T14:18:03.446Z,11.89
2023-05-04T14:20:08.978Z,11.87
2023-05-04T14:22:12.843Z,11.90
2023-05-04T14:24:18.094Z,11.90
2023-05-04T14:26:21.764Z,11.88
2023-05-04T14:28:26.328Z,11.89
2023-05-04T14:30:32.271Z,11.88
2023-05-04T14:32:36.249Z,11.77
2023-05-04T14:34:40.192Z,11.72
2023-05-04T14:36:44.250Z,11.68
2023-05-04T14:38:48.549Z,11.73
2023-05-04T14:40:55.487Z,11.77
2023-05-04T14:43:01.110Z,11.74
2023-05-04T14:45:05.692Z,11.63
2023-05-04T14:47:09.928Z,11.56
2023-05-04T14:49:18.706Z,11.50
2023-05-04T14:51:30.271Z,11.49
2023-05-04T14:53:37.005Z,11.52
2023-05-04T14:55:42.977Z,11.51
2023-05-04T14:57:48.198Z,11.57
2023-05-04T14:59:52.374Z,11.52
2023-05-04T15:01:57.702Z,11.50
2023-05-04T15:04:01.737Z,11.50
2023-05-04T15:06:05.722Z,11.55
2023-05-04T15:08:09.503Z,11.59
2023-05-04T15:10:15.013Z,11.56
2023-05-04T15:12:18.637Z,11.58
2023-05-04T15:14:24.347Z,11.60
2023-05-04T15:16:32.508Z,11.62
2023-05-04T15:18:36.608Z,11.59
2023-05-04T15:20:40.257Z,11.57
2023-05-04T15:22:47.509Z,11.62
2023-05-04T15:24:51.711Z,11.68
2023-05-04T15:26:55.825Z,11.63
2023-05-04T15:28:59.948Z,11.58
2023-05-04T15:31:07.432Z,11.55
2023-05-04T15:33:11.281Z,11.49
2023-05-04T15:35:16.034Z,11.50
2023-05-04T15:37:19.607Z,11.50
2023-05-04T15:39:23.419Z,11.49
2023-05-04T15:41:27.853Z,11.53
2023-05-04T15:43:31.646Z,11.54
2023-05-04T15:45:35.384Z,11.56
2023-05-04T15:47:40.810Z,11.61
2023-05-04T15:49:45.054Z,11.69
2023-05-04T15:51:48.813Z,11.72
2023-05-04T15:53:52.744Z,11.70
2023-05-04T15:55:56.420Z,11.72
2023-05-04T15:58:00.258Z,11.74
2023-05-04T16:00:05.754Z,11.68
2023-05-04T16:02:09.960Z,11.69
2023-05-04T16:04:15.308Z,11.68
2023-05-04T16:06:19.157Z,11.68
2023-05-04T16:08:23.007Z,11.72
2023-05-04T16:10:26.814Z,11.72
2023-05-04T16:12:30.792Z,11.73
2023-05-04T16:14:34.582Z,11.73
2023-05-04T16:16:38.541Z,11.74
2023-05-04T16:18:42.207Z,11.75
2023-05-04T16:20:47.391Z,11.74
2023-05-04T16:22:51.531Z,11.74
2023-05-04T16:24:55.312Z,11.71
2023-05-04T16:27:00.449Z,11.71
2023-05-04T16:29:04.388Z,11.71
2023-05-04T16:31:09.574Z,11.72
2023-05-04T16:33:14.992Z,11.74
2023-05-04T16:35:18.883Z,11.77
2023-05-04T16:37:24.006Z,11.76
2023-05-04T16:39:31.836Z,11.73
2023-05-04T16:41:35.691Z,11.74
2023-05-04T16:43:39.418Z,11.75
2023-05-04T16:45:43.245Z,11.73
2023-05-04T16:47:47.024Z,11.68
2023-05-04T16:49:50.854Z,11.69
2023-05-04T16:51:55.547Z,11.68
2023-05-04T16:54:00.957Z,11.68
2023-05-04T16:56:05.554Z,11.64
2023-05-04T16:58:09.582Z,11.65
2023-05-04T17:00:14.795Z,11.62
2023-05-04T17:02:18.417Z,11.58
2023-05-04T17:04:22.033Z,11.52
2023-05-04T17:06:25.849Z,11.48
2023-05-04T17:08:29.570Z,11.44
2023-05-04T17:10:35.014Z,11.36
2023-05-04T17:12:38.907Z,11.26
2023-05-04T17:14:42.684Z,11.18
2023-05-04T17:16:46.543Z,11.15
2023-05-04T17:18:50.239Z,11.11
2023-05-04T17:20:54.010Z,11.08
2023-05-04T17:22:59.223Z,11.03
2023-05-04T17:25:03.160Z,10.92
2023-05-04T17:27:08.594Z,10.81
2023-05-04T17:29:12.375Z,10.72
2023-05-04T17:31:16.294Z,10.65
2023-05-04T17:33:20.142Z,10.59
2023-05-04T17:35:26.291Z,10.50
2023-05-04T17:37:30.257Z,10.37
2023-05-04T17:39:33.995Z,10.24
2023-05-04T17:41:37.890Z,10.13
2023-05-04T17:43:43.094Z,10.09
2023-05-04T17:45:46.928Z,10.05
2023-05-04T17:47:52.692Z,10.02
2023-05-04T17:49:56.481Z,10.02
2023-05-04T17:52:01.923Z,10.02
2023-05-04T17:54:08.686Z,10.02
2023-05-04T17:56:12.580Z,10.04
2023-05-04T17:58:16.426Z,10.08
2023-05-04T18:00:22.756Z,10.09
2023-05-04T18:02:26.765Z,10.09
2023-05-04T18:04:32.420Z,10.10
2023-05-04T18:06:37.009Z,10.10
2023-05-04T18:08:40.625Z,10.10
2023-05-04T18:10:44.301Z,10.12
2023-05-04T18:12:48.242Z,10.12
2023-05-04T18:14:54.121Z,10.11
2023-05-04T18:16:59.222Z,10.08
2023-05-04T18:19:02.885Z,10.06
2023-05-04T18:21:06.868Z,9.98
2023-05-04T18:23:10.504Z,9.96
2023-05-04T18:25:15.581Z,9.91
2023-05-04T18:27:19.606Z,9.90
2023-05-04T18:29:23.550Z,9.85
2023-05-04T18:31:27.201Z,9.85
2023-05-04T18:33:32.731Z,9.84
2023-05-04T18:35:36.906Z,9.83
2023-05-04T18:37:40.943Z,9.86
2023-05-04T18:39:44.810Z,9.89
2023-05-04T18:41:48.649Z,9.92
2023-05-04T18:43:53.069Z,9.92
2023-05-04T18:45:56.796Z,9.94
2023-05-04T18:48:00.567Z,9.95
2023-05-04T18:50:07.143Z,9.94
2023-05-04T18:52:11.253Z,9.95
2023-05-04T18:54:16.310Z,9.94
2023-05-04T18:56:19.662Z,9.95
2023-05-04T18:58:23.277Z,9.96
2023-05-04T19:00:27.113Z,9.94
2023-05-04T19:02:31.682Z,9.95
2023-05-04T19:04:35.764Z,9.95
2023-05-04T19:06:40.855Z,9.93
2023-05-04T19:08:44.779Z,9.93
2023-05-04T19:10:49.076Z,9.93
2023-05-04T19:12:53.572Z,9.94
2023-05-04T19:14:57.521Z,9.98
2023-05-04T19:17:01.634Z,9.99
2023-05-04T19:19:05.601Z,9.99
2023-05-04T19:21:09.691Z,9.99
2023-05-04T19:23:14.941Z,9.96
2023-05-04T19:25:30.947Z,9.94
2023-05-04T19:27:38.501Z,9.89
2023-05-04T19:29:42.678Z,9.86
2023-05-04T19:31:46.666Z,9.82
2023-05-04T19:33:50.885Z,9.79
2023-05-04T19:35:54.535Z,9.80
2023-05-04T19:37:58.754Z,9.78
2023-05-04T19:40:05.445Z,9.77
2023-05-04T19:42:09.578Z,9.75
2023-05-04T19:44:13.354Z,9.78
2023-05-04T19:46:17.382Z,9.80
2023-05-04T19:48:21.620Z,9.80
2023-05-04T19:50:25.692Z,9.80
2023-05-04T19:52:29.419Z,9.82
2023-05-04T19:54:32.987Z,9.87
2023-05-04T19:56:38.333Z,9.89
2023-05-04T19:58:42.409Z,9.91
2023-05-04T20:00:46.359Z,9.92
2023-05-04T20:02:50.906Z,9.92
2023-05-04T20:04:54.776Z,9.94
2023-05-04T20:06:58.551Z,9.93
2023-05-04T20:09:02.474Z,9.90
2023-05-04T20:11:06.296Z,9.89
2023-05-04T20:13:11.813Z,9.86
2023-05-04T20:15:15.930Z,9.83
2023-05-04T20:17:19.922Z,9.79
2023-05-04T20:19:23.511Z,9.79
2023-05-04T20:21:27.400Z,9.77
2023-05-04T20:23:31.112Z,9.74
2023-05-04T20:25:34.723Z,9.74
2023-05-04T20:27:38.693Z,9.71
2023-05-04T20:29:44.048Z,9.70
2023-05-04T20:31:47.667Z,9.67
2023-05-04T20:33:51.696Z,9.67
2023-05-04T20:35:55.494Z,9.69
2023-05-04T20:37:59.387Z,9.68
2023-05-04T20:40:03.213Z,9.68
2023-05-04T20:42:06.920Z,9.65
2023-05-04T20:44:10.799Z,9.66
2023-05-04T20:46:16.008Z,9.67
2023-05-04T20:48:19.852Z,9.66
2023-05-04T20:50:23.583Z,9.68
2023-05-04T20:52:27.854Z,9.67
2023-05-04T20:54:31.760Z,9.64
2023-05-04T20:56:35.459Z,9.65
2023-05-04T20:58:39.403Z,9.64
2023-05-04T21:00:43.620Z,9.65
2023-05-04T21:02:49.056Z,9.64
2023-05-04T21:04:52.747Z,9.65
2023-05-04T21:06:58.401Z,9.65
2023-05-04T21:09:02.234Z,9.67
2023-05-04T21:11:07.145Z,9.66
2023-05-04T21:13:11.589Z,9.67
2023-05-04T21:15:15.759Z,9.66
2023-05-04T21:17:19.614Z,9.69
2023-05-04T21:19:25.026Z,9.70
2023-05-04T21:21:28.961Z,9.75
2023-05-04T21:23:33.391Z,9.77
2023-05-04T21:25:37.566Z,9.80
2023-05-04T21:27:43.091Z,9.86
2023-05-04T21:29:48.232Z,9.90
2023-05-04T21:31:52.329Z,9.94
2023-05-04T21:33:56.344Z,9.99
2023-05-04T21:36:12.530Z,10.04
2023-05-04T21:38:17.946Z,10.05
2023-05-04T21:40:22.663Z,10.07
2023-05-04T21:42:27.596Z,10.11
2023-05-04T21:44:31.307Z,10.11
2023-05-04T21:46:34.879Z,10.12
2023-05-04T21:48:38.340Z,10.13
2023-05-04T21:50:42.241Z,10.15
2023-05-04T21:52:48.906Z,10.15
2023-05-04T21:54:53.507Z,10.13
2023-05-04T21:56:57.827Z,10.14
2023-05-04T21:59:03.252Z,10.13
2023-05-04T22:01:07.700Z,10.13
2023-05-04T22:03:11.597Z,10.11
2023-05-04T22:05:17.716Z,10.11
2023-05-04T22:07:21.732Z,10.12
2023-05-04T22:09:27.397Z,10.13
2023-05-04T22:11:31.991Z,10.13
2023-05-04T22:13:36.641Z,10.13
2023-05-04T22:15:49.472Z,10.14
2023-05-04T22:17:53.819Z,10.16
2023-05-04T22:19:58.163Z,10.15
2023-05-04T22:22:01.790Z,10.14
2023-05-04T22:24:06.415Z,10.15
2023-05-04T22:26:12.246Z,10.15
2023-05-04T22:28:16.441Z,10.14
2023-05-04T22:30:21.987Z,10.15
2023-05-04T22:32:25.814Z,10.16
2023-05-04T22:34:29.624Z,10.15
2023-05-04T22:36:33.741Z,10.16
2023-05-04T22:38:37.530Z,10.19
2023-05-04T22:40:43.138Z,10.19
2023-05-04T22:42:48.130Z,10.21
2023-05-04T22:44:51.560Z,10.20
2023-05-04T22:46:55.278Z,10.19
2023-05-04T22:48:58.763Z,10.22
2023-05-04T22:51:02.573Z,10.23
2023-05-04T22:53:07.184Z,10.22
2023-05-04T22:55:13.208Z,10.22
2023-05-04T22:57:18.806Z,10.22
2023-05-04T22:59:26.783Z,10.24
2023-05-04T23:01:33.799Z,10.21
2023-05-04T23:03:41.086Z,10.22
2023-05-04T23:05:44.818Z,10.22
2023-05-04T23:07:48.939Z,10.23
2023-05-04T23:09:53.362Z,10.21
2023-05-04T23:11:57.623Z,10.22
2023-05-04T23:14:01.295Z,10.25
2023-05-04T23:16:08.323Z,10.24
2023-05-04T23:18:12.147Z,10.24
2023-05-04T23:20:17.073Z,10.25
2023-05-04T23:22:21.011Z,10.24
2023-05-04T23:24:24.805Z,10.25
2023-05-04T23:26:28.638Z,10.25
2023-05-04T23:28:32.294Z,10.25
2023-05-04T23:30:36.775Z,10.26
2023-05-04T23:32:42.045Z,10.27
2023-05-04T23:34:47.882Z,10.29
2023-05-04T23:36:51.688Z,10.27
2023-05-04T23:38:55.221Z,10.24
2023-05-04T23:40:59.815Z,10.23
2023-05-04T23:43:03.759Z,10.20
2023-05-04T23:45:09.181Z,10.19
2023-05-04T23:47:12.772Z,10.19
2023-05-04T23:49:19.711Z,10.16
2023-05-04T23:51:24.992Z,10.16
2023-05-04T23:53:29.287Z,10.19
2023-05-04T23:55:34.060Z,10.18
2023-05-04T23:57:37.906Z,10.18
2023-05-04T23:59:42.656Z,10.16
